sensor_id;sensor_type;location;lat;lon;timestamp;P1;durP1;ratioP1;P2;durP2;ratioP2
7961;SDS011;4026;43.652;24.906;2023-09-18T00:01:13;4.10;;;2.40;;
7961;SDS011;4026;43.652;24.906;2023-09-18T00:03:40;8.80;;;2.93;;
7961;SDS011;4026;43.652;24.906;2023-09-18T00:06:07;4.27;;;2.43;;
7961;SDS011;4026;43.652;24.906;2023-09-18T00:08:38;4.53;;;2.80;;
7961;SDS011;4026;43.652;24.906;2023-09-18T00:11:06;3.80;;;2.50;;
7961;SDS011;4026;43.652;24.906;2023-09-18T00:13:33;4.63;;;2.73;;
7961;SDS011;4026;43.652;24.906;2023-09-18T00:16:00;4.60;;;2.37;;
7961;SDS011;4026;43.652;24.906;2023-09-18T00:18:29;5.73;;;2.50;;
7961;SDS011;4026;43.652;24.906;2023-09-18T00:20:56;4.00;;;2.40;;
7961;SDS011;4026;43.652;24.906;2023-09-18T00:23:22;4.77;;;2.47;;
7961;SDS011;4026;43.652;24.906;2023-09-18T00:25:51;6.20;;;2.30;;
7961;SDS011;4026;43.652;24.906;2023-09-18T00:28:17;6.43;;;2.67;;
7961;SDS011;4026;43.652;24.906;2023-09-18T00:30:46;6.10;;;2.37;;
7961;SDS011;4026;43.652;24.906;2023-09-18T00:33:14;4.57;;;2.20;;
7961;SDS011;4026;43.652;24.906;2023-09-18T00:35:44;3.27;;;2.53;;
7961;SDS011;4026;43.652;24.906;2023-09-18T00:38:12;6.77;;;2.40;;
7961;SDS011;4026;43.652;24.906;2023-09-18T00:40:39;3.83;;;2.27;;
7961;SDS011;4026;43.652;24.906;2023-09-18T00:43:07;4.67;;;2.50;;
7961;SDS011;4026;43.652;24.906;2023-09-18T00:45:34;4.70;;;2.70;;
7961;SDS011;4026;43.652;24.906;2023-09-18T00:48:02;3.20;;;2.20;;
7961;SDS011;4026;43.652;24.906;2023-09-18T00:50:29;3.20;;;2.07;;
7961;SDS011;4026;43.652;24.906;2023-09-18T00:52:57;4.17;;;2.27;;
7961;SDS011;4026;43.652;24.906;2023-09-18T00:55:24;3.37;;;2.10;;
7961;SDS011;4026;43.652;24.906;2023-09-18T00:57:51;4.57;;;1.93;;
7961;SDS011;4026;43.652;24.906;2023-09-18T01:00:19;4.40;;;2.50;;
7961;SDS011;4026;43.652;24.906;2023-09-18T01:02:47;4.20;;;2.07;;
7961;SDS011;4026;43.652;24.906;2023-09-18T01:05:14;5.03;;;2.23;;
7961;SDS011;4026;43.652;24.906;2023-09-18T01:07:42;3.23;;;2.17;;
7961;SDS011;4026;43.652;24.906;2023-09-18T01:10:09;3.33;;;2.20;;
7961;SDS011;4026;43.652;24.906;2023-09-18T01:12:42;3.00;;;2.23;;
7961;SDS011;4026;43.652;24.906;2023-09-18T01:15:15;4.30;;;2.67;;
7961;SDS011;4026;43.652;24.906;2023-09-18T01:17:49;4.43;;;2.60;;
7961;SDS011;4026;43.652;24.906;2023-09-18T01:20:16;4.27;;;2.33;;
7961;SDS011;4026;43.652;24.906;2023-09-18T01:22:44;5.43;;;2.50;;
7961;SDS011;4026;43.652;24.906;2023-09-18T01:25:11;3.80;;;2.30;;
7961;SDS011;4026;43.652;24.906;2023-09-18T01:27:38;4.40;;;2.30;;
7961;SDS011;4026;43.652;24.906;2023-09-18T01:30:05;4.17;;;2.10;;
7961;SDS011;4026;43.652;24.906;2023-09-18T01:32:32;4.50;;;2.13;;
7961;SDS011;4026;43.652;24.906;2023-09-18T01:35:03;3.67;;;2.40;;
7961;SDS011;4026;43.652;24.906;2023-09-18T01:37:32;6.77;;;2.43;;
7961;SDS011;4026;43.652;24.906;2023-09-18T01:40:02;5.87;;;2.40;;
7961;SDS011;4026;43.652;24.906;2023-09-18T01:42:32;7.17;;;2.20;;
7961;SDS011;4026;43.652;24.906;2023-09-18T01:44:59;3.77;;;2.37;;
7961;SDS011;4026;43.652;24.906;2023-09-18T01:47:26;2.70;;;2.13;;
7961;SDS011;4026;43.652;24.906;2023-09-18T01:49:53;3.33;;;2.07;;
7961;SDS011;4026;43.652;24.906;2023-09-18T01:52:20;4.63;;;2.37;;
7961;SDS011;4026;43.652;24.906;2023-09-18T01:54:46;7.80;;;2.53;;
7961;SDS011;4026;43.652;24.906;2023-09-18T01:57:15;4.33;;;2.63;;
7961;SDS011;4026;43.652;24.906;2023-09-18T01:59:42;4.53;;;2.40;;
7961;SDS011;4026;43.652;24.906;2023-09-18T02:02:10;5.20;;;2.40;;
7961;SDS011;4026;43.652;24.906;2023-09-18T02:04:37;3.07;;;2.30;;
7961;SDS011;4026;43.652;24.906;2023-09-18T02:07:05;3.80;;;2.30;;
7961;SDS011;4026;43.652;24.906;2023-09-18T02:09:32;3.93;;;2.40;;
7961;SDS011;4026;43.652;24.906;2023-09-18T02:11:58;3.97;;;2.60;;
7961;SDS011;4026;43.652;24.906;2023-09-18T02:14:27;4.53;;;2.40;;
7961;SDS011;4026;43.652;24.906;2023-09-18T02:16:55;3.53;;;2.73;;
7961;SDS011;4026;43.652;24.906;2023-09-18T02:19:22;4.53;;;2.57;;
7961;SDS011;4026;43.652;24.906;2023-09-18T02:21:49;6.07;;;2.83;;
7961;SDS011;4026;43.652;24.906;2023-09-18T02:24:16;5.50;;;2.80;;
7961;SDS011;4026;43.652;24.906;2023-09-18T02:26:42;4.10;;;2.30;;
7961;SDS011;4026;43.652;24.906;2023-09-18T02:29:10;7.53;;;2.80;;
7961;SDS011;4026;43.652;24.906;2023-09-18T02:31:40;4.67;;;2.70;;
7961;SDS011;4026;43.652;24.906;2023-09-18T02:34:07;4.07;;;2.83;;
7961;SDS011;4026;43.652;24.906;2023-09-18T02:36:34;5.47;;;3.23;;
7961;SDS011;4026;43.652;24.906;2023-09-18T02:39:01;5.60;;;2.90;;
7961;SDS011;4026;43.652;24.906;2023-09-18T02:41:28;7.50;;;3.00;;
7961;SDS011;4026;43.652;24.906;2023-09-18T02:43:55;8.00;;;2.87;;
7961;SDS011;4026;43.652;24.906;2023-09-18T02:46:22;6.27;;;3.00;;
7961;SDS011;4026;43.652;24.906;2023-09-18T02:48:50;6.13;;;2.97;;
7961;SDS011;4026;43.652;24.906;2023-09-18T02:51:17;7.13;;;2.90;;
7961;SDS011;4026;43.652;24.906;2023-09-18T02:53:43;6.33;;;2.83;;
7961;SDS011;4026;43.652;24.906;2023-09-18T02:56:10;4.97;;;3.37;;
7961;SDS011;4026;43.652;24.906;2023-09-18T02:58:37;5.57;;;3.23;;
7961;SDS011;4026;43.652;24.906;2023-09-18T03:01:04;4.40;;;2.87;;
7961;SDS011;4026;43.652;24.906;2023-09-18T03:03:33;6.03;;;3.30;;
7961;SDS011;4026;43.652;24.906;2023-09-18T03:06:02;6.30;;;2.93;;
7961;SDS011;4026;43.652;24.906;2023-09-18T03:08:29;5.40;;;3.53;;
7961;SDS011;4026;43.652;24.906;2023-09-18T03:10:56;5.13;;;3.03;;
7961;SDS011;4026;43.652;24.906;2023-09-18T03:13:23;4.53;;;3.00;;
7961;SDS011;4026;43.652;24.906;2023-09-18T03:15:49;4.80;;;3.03;;
7961;SDS011;4026;43.652;24.906;2023-09-18T03:18:16;6.07;;;2.63;;
7961;SDS011;4026;43.652;24.906;2023-09-18T03:20:43;6.17;;;2.87;;
7961;SDS011;4026;43.652;24.906;2023-09-18T03:23:11;4.37;;;2.60;;
7961;SDS011;4026;43.652;24.906;2023-09-18T03:25:39;4.90;;;2.73;;
7961;SDS011;4026;43.652;24.906;2023-09-18T03:28:06;6.33;;;3.00;;
7961;SDS011;4026;43.652;24.906;2023-09-18T03:30:32;4.70;;;2.80;;
7961;SDS011;4026;43.652;24.906;2023-09-18T03:32:59;5.20;;;3.17;;
7961;SDS011;4026;43.652;24.906;2023-09-18T03:35:28;4.20;;;2.77;;
7961;SDS011;4026;43.652;24.906;2023-09-18T03:37:55;7.00;;;3.10;;
7961;SDS011;4026;43.652;24.906;2023-09-18T03:40:25;6.10;;;3.20;;
7961;SDS011;4026;43.652;24.906;2023-09-18T03:42:51;5.87;;;3.00;;
7961;SDS011;4026;43.652;24.906;2023-09-18T03:45:18;5.33;;;3.33;;
7961;SDS011;4026;43.652;24.906;2023-09-18T03:47:45;5.87;;;2.90;;
7961;SDS011;4026;43.652;24.906;2023-09-18T03:50:12;4.40;;;2.87;;
7961;SDS011;4026;43.652;24.906;2023-09-18T03:52:39;6.17;;;3.47;;
7961;SDS011;4026;43.652;24.906;2023-09-18T03:55:07;5.73;;;2.67;;
7961;SDS011;4026;43.652;24.906;2023-09-18T03:57:35;4.70;;;3.23;;
7961;SDS011;4026;43.652;24.906;2023-09-18T04:00:03;9.23;;;3.40;;
7961;SDS011;4026;43.652;24.906;2023-09-18T04:02:32;3.17;;;2.50;;
7961;SDS011;4026;43.652;24.906;2023-09-18T04:05:00;4.63;;;3.07;;
7961;SDS011;4026;43.652;24.906;2023-09-18T04:07:27;5.47;;;2.80;;
7961;SDS011;4026;43.652;24.906;2023-09-18T04:09:54;4.03;;;2.73;;
7961;SDS011;4026;43.652;24.906;2023-09-18T04:12:21;7.53;;;3.33;;
7961;SDS011;4026;43.652;24.906;2023-09-18T04:14:49;4.50;;;3.03;;
7961;SDS011;4026;43.652;24.906;2023-09-18T04:17:16;4.83;;;2.90;;
7961;SDS011;4026;43.652;24.906;2023-09-18T04:19:43;4.60;;;2.77;;
7961;SDS011;4026;43.652;24.906;2023-09-18T04:22:10;3.80;;;2.77;;
7961;SDS011;4026;43.652;24.906;2023-09-18T04:24:39;7.47;;;3.40;;
7961;SDS011;4026;43.652;24.906;2023-09-18T04:27:05;6.10;;;3.17;;
7961;SDS011;4026;43.652;24.906;2023-09-18T04:29:32;7.63;;;3.70;;
7961;SDS011;4026;43.652;24.906;2023-09-18T04:32:02;4.57;;;3.10;;
7961;SDS011;4026;43.652;24.906;2023-09-18T04:34:30;3.90;;;2.57;;
7961;SDS011;4026;43.652;24.906;2023-09-18T04:36:57;5.60;;;3.17;;
7961;SDS011;4026;43.652;24.906;2023-09-18T04:39:23;5.60;;;3.03;;
7961;SDS011;4026;43.652;24.906;2023-09-18T04:41:50;5.23;;;3.40;;
7961;SDS011;4026;43.652;24.906;2023-09-18T04:44:17;5.10;;;3.30;;
7961;SDS011;4026;43.652;24.906;2023-09-18T04:46:44;8.10;;;4.03;;
7961;SDS011;4026;43.652;24.906;2023-09-18T04:49:12;5.87;;;3.37;;
7961;SDS011;4026;43.652;24.906;2023-09-18T04:51:39;5.97;;;3.67;;
7961;SDS011;4026;43.652;24.906;2023-09-18T04:54:06;5.80;;;3.40;;
7961;SDS011;4026;43.652;24.906;2023-09-18T04:56:33;9.13;;;3.60;;
7961;SDS011;4026;43.652;24.906;2023-09-18T04:59:00;7.20;;;3.70;;
7961;SDS011;4026;43.652;24.906;2023-09-18T05:01:28;5.93;;;3.40;;
7961;SDS011;4026;43.652;24.906;2023-09-18T05:03:55;6.03;;;3.23;;
7961;SDS011;4026;43.652;24.906;2023-09-18T05:06:24;6.27;;;3.00;;
7961;SDS011;4026;43.652;24.906;2023-09-18T05:08:51;5.80;;;3.83;;
7961;SDS011;4026;43.652;24.906;2023-09-18T05:11:18;5.10;;;3.67;;
7961;SDS011;4026;43.652;24.906;2023-09-18T05:13:45;6.97;;;3.73;;
7961;SDS011;4026;43.652;24.906;2023-09-18T05:16:12;6.50;;;3.63;;
7961;SDS011;4026;43.652;24.906;2023-09-18T05:18:39;7.90;;;3.80;;
7961;SDS011;4026;43.652;24.906;2023-09-18T05:21:06;10.43;;;3.43;;
7961;SDS011;4026;43.652;24.906;2023-09-18T05:23:36;7.10;;;4.07;;
7961;SDS011;4026;43.652;24.906;2023-09-18T05:26:03;7.13;;;3.60;;
7961;SDS011;4026;43.652;24.906;2023-09-18T05:28:30;6.40;;;3.07;;
7961;SDS011;4026;43.652;24.906;2023-09-18T05:30:56;4.77;;;3.40;;
7961;SDS011;4026;43.652;24.906;2023-09-18T05:33:23;6.17;;;2.97;;
7961;SDS011;4026;43.652;24.906;2023-09-18T05:35:50;5.70;;;3.10;;
7961;SDS011;4026;43.652;24.906;2023-09-18T05:38:17;5.50;;;3.13;;
7961;SDS011;4026;43.652;24.906;2023-09-18T05:40:45;5.23;;;2.97;;
7961;SDS011;4026;43.652;24.906;2023-09-18T05:43:12;6.20;;;3.10;;
7961;SDS011;4026;43.652;24.906;2023-09-18T05:45:39;3.63;;;2.70;;
7961;SDS011;4026;43.652;24.906;2023-09-18T05:48:06;4.70;;;2.87;;
7961;SDS011;4026;43.652;24.906;2023-09-18T05:50:34;6.83;;;2.97;;
7961;SDS011;4026;43.652;24.906;2023-09-18T05:53:02;7.13;;;2.83;;
7961;SDS011;4026;43.652;24.906;2023-09-18T05:55:30;5.70;;;2.60;;
7961;SDS011;4026;43.652;24.906;2023-09-18T05:57:58;7.00;;;2.90;;
7961;SDS011;4026;43.652;24.906;2023-09-18T06:00:25;4.80;;;2.60;;
7961;SDS011;4026;43.652;24.906;2023-09-18T06:02:52;4.70;;;2.80;;
7961;SDS011;4026;43.652;24.906;2023-09-18T06:05:19;5.07;;;2.50;;
7961;SDS011;4026;43.652;24.906;2023-09-18T06:07:47;5.50;;;3.47;;
7961;SDS011;4026;43.652;24.906;2023-09-18T06:10:14;4.17;;;2.63;;
7961;SDS011;4026;43.652;24.906;2023-09-18T06:12:42;5.23;;;3.23;;
7961;SDS011;4026;43.652;24.906;2023-09-18T06:15:11;3.63;;;2.47;;
7961;SDS011;4026;43.652;24.906;2023-09-18T06:17:38;4.87;;;2.87;;
7961;SDS011;4026;43.652;24.906;2023-09-18T06:20:06;4.33;;;2.70;;
7961;SDS011;4026;43.652;24.906;2023-09-18T06:22:35;4.50;;;2.53;;
7961;SDS011;4026;43.652;24.906;2023-09-18T06:25:04;3.67;;;2.80;;
7961;SDS011;4026;43.652;24.906;2023-09-18T06:27:33;6.47;;;3.00;;
7961;SDS011;4026;43.652;24.906;2023-09-18T06:30:01;4.90;;;2.80;;
7961;SDS011;4026;43.652;24.906;2023-09-18T06:32:30;4.30;;;2.70;;
7961;SDS011;4026;43.652;24.906;2023-09-18T06:34:57;5.20;;;2.60;;
7961;SDS011;4026;43.652;24.906;2023-09-18T06:37:24;4.80;;;2.73;;
7961;SDS011;4026;43.652;24.906;2023-09-18T06:39:51;5.10;;;2.87;;
7961;SDS011;4026;43.652;24.906;2023-09-18T06:42:18;3.10;;;2.50;;
7961;SDS011;4026;43.652;24.906;2023-09-18T06:44:45;3.60;;;2.43;;
7961;SDS011;4026;43.652;24.906;2023-09-18T06:47:12;3.87;;;2.57;;
7961;SDS011;4026;43.652;24.906;2023-09-18T06:49:41;3.72;;;2.38;;
7961;SDS011;4026;43.652;24.906;2023-09-18T06:52:08;4.10;;;2.50;;
7961;SDS011;4026;43.652;24.906;2023-09-18T06:54:35;2.80;;;2.25;;
7961;SDS011;4026;43.652;24.906;2023-09-18T06:57:02;4.60;;;2.47;;
7961;SDS011;4026;43.652;24.906;2023-09-18T06:59:30;3.97;;;2.50;;
7961;SDS011;4026;43.652;24.906;2023-09-18T07:01:58;3.17;;;2.35;;
7961;SDS011;4026;43.652;24.906;2023-09-18T07:04:26;4.28;;;2.35;;
7961;SDS011;4026;43.652;24.906;2023-09-18T07:06:54;5.90;;;2.47;;
7961;SDS011;4026;43.652;24.906;2023-09-18T07:09:21;4.10;;;2.70;;
7961;SDS011;4026;43.652;24.906;2023-09-18T07:11:49;4.22;;;2.40;;
7961;SDS011;4026;43.652;24.906;2023-09-18T07:14:16;3.70;;;2.60;;
7961;SDS011;4026;43.652;24.906;2023-09-18T07:16:43;3.78;;;2.70;;
7961;SDS011;4026;43.652;24.906;2023-09-18T07:19:10;3.33;;;2.50;;
7961;SDS011;4026;43.652;24.906;2023-09-18T07:21:41;6.65;;;2.42;;
7961;SDS011;4026;43.652;24.906;2023-09-18T07:24:10;2.70;;;2.17;;
7961;SDS011;4026;43.652;24.906;2023-09-18T07:26:43;2.70;;;2.00;;
7961;SDS011;4026;43.652;24.906;2023-09-18T07:29:11;7.13;;;2.53;;
7961;SDS011;4026;43.652;24.906;2023-09-18T07:31:38;5.88;;;2.50;;
7961;SDS011;4026;43.652;24.906;2023-09-18T07:34:05;4.07;;;2.42;;
7961;SDS011;4026;43.652;24.906;2023-09-18T07:36:32;6.57;;;2.17;;
7961;SDS011;4026;43.652;24.906;2023-09-18T07:38:59;3.08;;;2.35;;
7961;SDS011;4026;43.652;24.906;2023-09-18T07:41:27;3.22;;;2.35;;
7961;SDS011;4026;43.652;24.906;2023-09-18T07:43:54;4.47;;;2.40;;
7961;SDS011;4026;43.652;24.906;2023-09-18T07:46:22;4.28;;;2.60;;
7961;SDS011;4026;43.652;24.906;2023-09-18T07:48:49;4.80;;;2.30;;
7961;SDS011;4026;43.652;24.906;2023-09-18T07:51:16;6.03;;;2.63;;
7961;SDS011;4026;43.652;24.906;2023-09-18T07:53:43;3.78;;;2.70;;
7961;SDS011;4026;43.652;24.906;2023-09-18T07:56:09;3.10;;;2.15;;
7961;SDS011;4026;43.652;24.906;2023-09-18T07:58:38;3.92;;;2.40;;
7961;SDS011;4026;43.652;24.906;2023-09-18T08:01:05;3.88;;;2.30;;
7961;SDS011;4026;43.652;24.906;2023-09-18T08:03:34;2.63;;;2.30;;
7961;SDS011;4026;43.652;24.906;2023-09-18T08:06:01;2.78;;;2.40;;
7961;SDS011;4026;43.652;24.906;2023-09-18T08:08:29;3.55;;;2.60;;
7961;SDS011;4026;43.652;24.906;2023-09-18T08:10:58;4.03;;;2.30;;
7961;SDS011;4026;43.652;24.906;2023-09-18T08:13:27;3.10;;;2.13;;
7961;SDS011;4026;43.652;24.906;2023-09-18T08:15:55;3.85;;;2.45;;
7961;SDS011;4026;43.652;24.906;2023-09-18T08:18:22;2.80;;;2.30;;
7961;SDS011;4026;43.652;24.906;2023-09-18T08:20:51;2.90;;;2.05;;
7961;SDS011;4026;43.652;24.906;2023-09-18T08:23:18;3.78;;;2.40;;
7961;SDS011;4026;43.652;24.906;2023-09-18T08:25:45;3.55;;;2.40;;
7961;SDS011;4026;43.652;24.906;2023-09-18T08:28:13;6.95;;;2.40;;
7961;SDS011;4026;43.652;24.906;2023-09-18T08:30:41;5.47;;;2.50;;
7961;SDS011;4026;43.652;24.906;2023-09-18T08:33:13;4.88;;;2.47;;
7961;SDS011;4026;43.652;24.906;2023-09-18T08:35:40;4.50;;;2.30;;
7961;SDS011;4026;43.652;24.906;2023-09-18T08:38:07;4.05;;;2.28;;
7961;SDS011;4026;43.652;24.906;2023-09-18T08:40:34;2.75;;;2.30;;
7961;SDS011;4026;43.652;24.906;2023-09-18T08:43:01;6.53;;;2.40;;
7961;SDS011;4026;43.652;24.906;2023-09-18T08:45:31;5.38;;;2.25;;
7961;SDS011;4026;43.652;24.906;2023-09-18T08:48:02;4.70;;;2.22;;
7961;SDS011;4026;43.652;24.906;2023-09-18T08:50:31;4.07;;;2.35;;
7961;SDS011;4026;43.652;24.906;2023-09-18T08:52:59;3.03;;;2.22;;
7961;SDS011;4026;43.652;24.906;2023-09-18T08:55:26;3.15;;;2.13;;
7961;SDS011;4026;43.652;24.906;2023-09-18T08:57:55;3.22;;;2.08;;
7961;SDS011;4026;43.652;24.906;2023-09-18T09:00:25;2.35;;;2.00;;
7961;SDS011;4026;43.652;24.906;2023-09-18T09:02:51;5.20;;;2.20;;
7961;SDS011;4026;43.652;24.906;2023-09-18T09:05:19;2.83;;;2.10;;
7961;SDS011;4026;43.652;24.906;2023-09-18T09:07:48;3.47;;;2.15;;
7961;SDS011;4026;43.652;24.906;2023-09-18T09:10:15;3.17;;;2.25;;
7961;SDS011;4026;43.652;24.906;2023-09-18T09:12:49;3.40;;;1.95;;
7961;SDS011;4026;43.652;24.906;2023-09-18T09:15:18;2.65;;;2.10;;
7961;SDS011;4026;43.652;24.906;2023-09-18T09:17:45;2.75;;;2.40;;
7961;SDS011;4026;43.652;24.906;2023-09-18T09:20:13;3.28;;;2.45;;
7961;SDS011;4026;43.652;24.906;2023-09-18T09:22:41;2.35;;;1.90;;
7961;SDS011;4026;43.652;24.906;2023-09-18T09:27:58;5.63;;;2.20;;
7961;SDS011;4026;43.652;24.906;2023-09-18T09:30:26;2.35;;;2.00;;
7961;SDS011;4026;43.652;24.906;2023-09-18T09:32:54;2.33;;;1.88;;
7961;SDS011;4026;43.652;24.906;2023-09-18T09:35:22;3.65;;;2.10;;
7961;SDS011;4026;43.652;24.906;2023-09-18T09:37:52;3.92;;;2.30;;
7961;SDS011;4026;43.652;24.906;2023-09-18T09:40:20;2.42;;;2.00;;
7961;SDS011;4026;43.652;24.906;2023-09-18T09:42:49;2.90;;;2.35;;
7961;SDS011;4026;43.652;24.906;2023-09-18T09:45:19;2.42;;;1.80;;
7961;SDS011;4026;43.652;24.906;2023-09-18T09:47:46;2.22;;;2.03;;
7961;SDS011;4026;43.652;24.906;2023-09-18T09:50:13;3.08;;;2.03;;
7961;SDS011;4026;43.652;24.906;2023-09-18T09:52:44;2.85;;;2.17;;
7961;SDS011;4026;43.652;24.906;2023-09-18T09:55:21;2.33;;;1.98;;
7961;SDS011;4026;43.652;24.906;2023-09-18T09:57:52;3.38;;;1.95;;
7961;SDS011;4026;43.652;24.906;2023-09-18T10:00:22;3.25;;;2.33;;
7961;SDS011;4026;43.652;24.906;2023-09-18T10:02:56;2.22;;;1.88;;
7961;SDS011;4026;43.652;24.906;2023-09-18T10:05:24;3.22;;;2.30;;
7961;SDS011;4026;43.652;24.906;2023-09-18T10:07:56;2.38;;;2.17;;
7961;SDS011;4026;43.652;24.906;2023-09-18T10:10:28;3.67;;;2.20;;
7961;SDS011;4026;43.652;24.906;2023-09-18T10:12:59;2.80;;;2.28;;
7961;SDS011;4026;43.652;24.906;2023-09-18T10:15:29;3.22;;;2.30;;
7961;SDS011;4026;43.652;24.906;2023-09-18T10:18:04;3.72;;;1.88;;
7961;SDS011;4026;43.652;24.906;2023-09-18T10:20:36;3.40;;;2.10;;
7961;SDS011;4026;43.652;24.906;2023-09-18T10:23:09;3.35;;;2.50;;
7961;SDS011;4026;43.652;24.906;2023-09-18T10:25:49;2.92;;;2.13;;
7961;SDS011;4026;43.652;24.906;2023-09-18T10:28:22;3.75;;;2.40;;
7961;SDS011;4026;43.652;24.906;2023-09-18T10:30:51;2.97;;;2.40;;
7961;SDS011;4026;43.652;24.906;2023-09-18T10:33:19;3.40;;;2.63;;
7961;SDS011;4026;43.652;24.906;2023-09-18T10:35:47;3.17;;;2.60;;
7961;SDS011;4026;43.652;24.906;2023-09-18T10:38:14;3.25;;;2.50;;
7961;SDS011;4026;43.652;24.906;2023-09-18T10:40:43;3.30;;;2.67;;
7961;SDS011;4026;43.652;24.906;2023-09-18T10:43:11;4.65;;;2.53;;
7961;SDS011;4026;43.652;24.906;2023-09-18T10:45:40;3.95;;;2.75;;
7961;SDS011;4026;43.652;24.906;2023-09-18T10:48:09;5.90;;;2.55;;
7961;SDS011;4026;43.652;24.906;2023-09-18T10:50:38;2.97;;;2.40;;
7961;SDS011;4026;43.652;24.906;2023-09-18T10:53:06;4.38;;;2.60;;
7961;SDS011;4026;43.652;24.906;2023-09-18T10:55:33;3.33;;;2.58;;
7961;SDS011;4026;43.652;24.906;2023-09-18T10:58:01;2.78;;;2.38;;
7961;SDS011;4026;43.652;24.906;2023-09-18T11:00:29;2.88;;;2.35;;
7961;SDS011;4026;43.652;24.906;2023-09-18T11:03:12;3.25;;;2.53;;
7961;SDS011;4026;43.652;24.906;2023-09-18T11:05:43;3.53;;;2.50;;
7961;SDS011;4026;43.652;24.906;2023-09-18T11:08:24;2.65;;;2.30;;
7961;SDS011;4026;43.652;24.906;2023-09-18T11:10:55;4.40;;;2.35;;
7961;SDS011;4026;43.652;24.906;2023-09-18T11:13:34;4.75;;;2.88;;
7961;SDS011;4026;43.652;24.906;2023-09-18T11:16:13;4.35;;;2.80;;
7961;SDS011;4026;43.652;24.906;2023-09-18T11:18:51;3.92;;;2.53;;
7961;SDS011;4026;43.652;24.906;2023-09-18T11:21:23;4.43;;;2.92;;
7961;SDS011;4026;43.652;24.906;2023-09-18T11:23:57;3.90;;;2.55;;
7961;SDS011;4026;43.652;24.906;2023-09-18T11:26:28;7.28;;;2.63;;
7961;SDS011;4026;43.652;24.906;2023-09-18T11:28:56;4.90;;;2.90;;
7961;SDS011;4026;43.652;24.906;2023-09-18T11:34:14;4.00;;;2.90;;
7961;SDS011;4026;43.652;24.906;2023-09-18T11:36:45;4.68;;;2.80;;
7961;SDS011;4026;43.652;24.906;2023-09-18T11:39:12;4.22;;;3.10;;
7961;SDS011;4026;43.652;24.906;2023-09-18T11:41:39;3.17;;;2.60;;
7961;SDS011;4026;43.652;24.906;2023-09-18T11:47:01;3.58;;;2.72;;
7961;SDS011;4026;43.652;24.906;2023-09-18T11:49:30;4.45;;;3.00;;
7961;SDS011;4026;43.652;24.906;2023-09-18T11:51:58;4.03;;;2.67;;
7961;SDS011;4026;43.652;24.906;2023-09-18T11:54:27;3.80;;;2.60;;
7961;SDS011;4026;43.652;24.906;2023-09-18T11:56:54;3.72;;;3.00;;
7961;SDS011;4026;43.652;24.906;2023-09-18T11:59:33;3.30;;;2.60;;
7961;SDS011;4026;43.652;24.906;2023-09-18T12:02:01;5.22;;;2.88;;
7961;SDS011;4026;43.652;24.906;2023-09-18T12:04:32;3.20;;;2.65;;
7961;SDS011;4026;43.652;24.906;2023-09-18T12:06:59;3.90;;;2.75;;
7961;SDS011;4026;43.652;24.906;2023-09-18T12:09:28;4.85;;;2.90;;
7961;SDS011;4026;43.652;24.906;2023-09-18T12:11:56;3.70;;;2.65;;
7961;SDS011;4026;43.652;24.906;2023-09-18T12:14:23;4.10;;;3.00;;
7961;SDS011;4026;43.652;24.906;2023-09-18T12:16:50;5.20;;;2.80;;
7961;SDS011;4026;43.652;24.906;2023-09-18T12:19:18;3.92;;;2.78;;
7961;SDS011;4026;43.652;24.906;2023-09-18T12:21:47;4.75;;;2.92;;
7961;SDS011;4026;43.652;24.906;2023-09-18T12:24:14;3.03;;;2.60;;
7961;SDS011;4026;43.652;24.906;2023-09-18T12:26:41;3.60;;;2.83;;
7961;SDS011;4026;43.652;24.906;2023-09-18T12:29:08;4.10;;;3.05;;
7961;SDS011;4026;43.652;24.906;2023-09-18T12:31:37;4.57;;;3.10;;
7961;SDS011;4026;43.652;24.906;2023-09-18T12:34:04;4.10;;;2.97;;
7961;SDS011;4026;43.652;24.906;2023-09-18T12:36:32;4.70;;;2.90;;
7961;SDS011;4026;43.652;24.906;2023-09-18T12:39:00;4.93;;;2.72;;
7961;SDS011;4026;43.652;24.906;2023-09-18T12:41:27;3.30;;;2.60;;
7961;SDS011;4026;43.652;24.906;2023-09-18T12:43:55;4.18;;;3.00;;
7961;SDS011;4026;43.652;24.906;2023-09-18T12:46:22;3.50;;;2.80;;
7961;SDS011;4026;43.652;24.906;2023-09-18T12:48:51;5.15;;;3.05;;
7961;SDS011;4026;43.652;24.906;2023-09-18T12:51:18;3.97;;;2.80;;
7961;SDS011;4026;43.652;24.906;2023-09-18T12:53:47;4.05;;;3.00;;
7961;SDS011;4026;43.652;24.906;2023-09-18T12:56:26;5.15;;;3.33;;
7961;SDS011;4026;43.652;24.906;2023-09-18T12:58:56;3.90;;;2.95;;
7961;SDS011;4026;43.652;24.906;2023-09-18T13:01:23;3.78;;;2.90;;
7961;SDS011;4026;43.652;24.906;2023-09-18T13:03:53;4.35;;;2.92;;
7961;SDS011;4026;43.652;24.906;2023-09-18T13:06:21;4.72;;;2.97;;
7961;SDS011;4026;43.652;24.906;2023-09-18T13:08:49;4.63;;;3.05;;
7961;SDS011;4026;43.652;24.906;2023-09-18T13:11:18;3.85;;;3.10;;
7961;SDS011;4026;43.652;24.906;2023-09-18T13:13:46;3.63;;;3.00;;
7961;SDS011;4026;43.652;24.906;2023-09-18T13:16:25;4.22;;;3.15;;
7961;SDS011;4026;43.652;24.906;2023-09-18T13:18:52;3.65;;;2.83;;
7961;SDS011;4026;43.652;24.906;2023-09-18T13:21:23;3.92;;;2.70;;
7961;SDS011;4026;43.652;24.906;2023-09-18T13:23:49;3.40;;;2.83;;
7961;SDS011;4026;43.652;24.906;2023-09-18T13:26:16;4.07;;;2.95;;
7961;SDS011;4026;43.652;24.906;2023-09-18T13:28:43;3.53;;;2.83;;
7961;SDS011;4026;43.652;24.906;2023-09-18T13:31:11;4.65;;;2.90;;
7961;SDS011;4026;43.652;24.906;2023-09-18T13:33:38;4.47;;;2.97;;
7961;SDS011;4026;43.652;24.906;2023-09-18T13:36:09;3.65;;;2.88;;
7961;SDS011;4026;43.652;24.906;2023-09-18T13:38:36;4.00;;;2.95;;
7961;SDS011;4026;43.652;24.906;2023-09-18T13:41:03;4.03;;;3.00;;
7961;SDS011;4026;43.652;24.906;2023-09-18T13:43:30;3.05;;;2.75;;
7961;SDS011;4026;43.652;24.906;2023-09-18T13:45:59;4.57;;;3.15;;
7961;SDS011;4026;43.652;24.906;2023-09-18T13:48:31;6.03;;;3.22;;
7961;SDS011;4026;43.652;24.906;2023-09-18T13:50:58;3.78;;;2.90;;
7961;SDS011;4026;43.652;24.906;2023-09-18T13:53:25;4.00;;;2.97;;
7961;SDS011;4026;43.652;24.906;2023-09-18T13:55:52;3.33;;;2.88;;
7961;SDS011;4026;43.652;24.906;2023-09-18T13:58:19;3.83;;;2.88;;
7961;SDS011;4026;43.652;24.906;2023-09-18T14:00:46;5.50;;;3.05;;
7961;SDS011;4026;43.652;24.906;2023-09-18T14:03:14;3.25;;;2.60;;
7961;SDS011;4026;43.652;24.906;2023-09-18T14:05:43;4.20;;;3.28;;
7961;SDS011;4026;43.652;24.906;2023-09-18T14:08:10;3.90;;;2.90;;
7961;SDS011;4026;43.652;24.906;2023-09-18T14:10:37;5.28;;;3.10;;
7961;SDS011;4026;43.652;24.906;2023-09-18T14:13:04;4.72;;;3.05;;
7961;SDS011;4026;43.652;24.906;2023-09-18T14:15:32;5.03;;;3.25;;
7961;SDS011;4026;43.652;24.906;2023-09-18T14:17:59;4.45;;;3.20;;
7961;SDS011;4026;43.652;24.906;2023-09-18T14:20:29;4.07;;;3.03;;
7961;SDS011;4026;43.652;24.906;2023-09-18T14:22:57;5.80;;;3.28;;
7961;SDS011;4026;43.652;24.906;2023-09-18T14:25:24;3.30;;;2.60;;
7961;SDS011;4026;43.652;24.906;2023-09-18T14:27:51;4.47;;;2.95;;
7961;SDS011;4026;43.652;24.906;2023-09-18T14:30:17;4.47;;;3.20;;
7961;SDS011;4026;43.652;24.906;2023-09-18T14:32:44;3.65;;;3.00;;
7961;SDS011;4026;43.652;24.906;2023-09-18T14:35:12;5.50;;;2.97;;
7961;SDS011;4026;43.652;24.906;2023-09-18T14:37:39;4.00;;;3.05;;
7961;SDS011;4026;43.652;24.906;2023-09-18T14:40:07;4.38;;;2.67;;
7961;SDS011;4026;43.652;24.906;2023-09-18T14:42:36;4.05;;;2.90;;
7961;SDS011;4026;43.652;24.906;2023-09-18T14:45:03;4.05;;;2.92;;
7961;SDS011;4026;43.652;24.906;2023-09-18T14:47:31;5.05;;;2.92;;
7961;SDS011;4026;43.652;24.906;2023-09-18T14:49:57;4.95;;;3.40;;
7961;SDS011;4026;43.652;24.906;2023-09-18T14:52:26;4.97;;;3.10;;
7961;SDS011;4026;43.652;24.906;2023-09-18T14:54:53;5.22;;;3.03;;
7961;SDS011;4026;43.652;24.906;2023-09-18T14:57:21;4.30;;;3.10;;
7961;SDS011;4026;43.652;24.906;2023-09-18T14:59:48;4.90;;;3.17;;
7961;SDS011;4026;43.652;24.906;2023-09-18T15:02:15;5.07;;;3.13;;
7961;SDS011;4026;43.652;24.906;2023-09-18T15:04:43;6.47;;;3.15;;
7961;SDS011;4026;43.652;24.906;2023-09-18T15:07:09;4.38;;;3.10;;
7961;SDS011;4026;43.652;24.906;2023-09-18T15:09:36;3.85;;;3.00;;
7961;SDS011;4026;43.652;24.906;2023-09-18T15:12:04;3.90;;;3.17;;
7961;SDS011;4026;43.652;24.906;2023-09-18T15:14:34;4.90;;;3.38;;